Time;durP1;ratioP1;P1;durP2;ratioP2;P2;SDS_P1;SDS_P2;PMS_P1;PMS_P2;Temp;Humidity;BMP_temperature;BMP_pressure;BME280_temperature;BME280_humidity;BME280_pressure;Samples;Min_cycle;Max_cycle;Signal;HPM_P1;HPM_P2
2021/11/03 00:00:14;;;;;;;5.10;3.20;;;7.00;91.90;;;;;;5066036;28;20032;-70
2021/11/03 00:02:41;;;;;;;6.13;3.30;;;7.00;92.00;;;;;;5066705;28;20028;-68
2021/11/03 00:05:09;;;;;;;4.72;2.92;;;7.00;91.80;;;;;;5057711;28;20033;-71
2021/11/03 00:07:34;;;;;;;3.92;2.80;;;6.90;91.50;;;;;;5068717;28;20402;-71
2021/11/03 00:10:03;;;;;;;2.90;2.28;;;6.90;91.20;;;;;;5060221;28;20029;-69
2021/11/03 00:12:30;;;;;;;4.68;3.03;;;6.80;91.10;;;;;;5061628;28;20021;-69
2021/11/03 00:14:56;;;;;;;2.83;2.60;;;6.70;91.20;;;;;;5068124;28;20028;-69
2021/11/03 00:17:21;;;;;;;4.22;2.85;;;6.70;91.50;;;;;;5057377;28;20118;-70
2021/11/03 00:19:47;;;;;;;2.83;2.63;;;6.80;91.90;;;;;;5067936;28;20017;-70
2021/11/03 00:22:14;;;;;;;2.83;2.63;;;6.80;92.10;;;;;;5060877;28;20036;-70
2021/11/03 00:24:41;;;;;;;6.07;2.58;;;6.90;92.20;;;;;;5039784;28;20094;-69
2021/11/03 00:27:07;;;;;;;2.55;2.30;;;7.00;92.20;;;;;;5067173;28;20028;-69
2021/11/03 00:29:33;;;;;;;2.72;2.22;;;7.00;92.10;;;;;;5057846;28;20021;-70
2021/11/03 00:31:58;;;;;;;2.25;2.05;;;7.10;92.10;;;;;;5065626;28;20060;-69
2021/11/03 00:34:24;;;;;;;1.98;1.88;;;7.20;91.70;;;;;;5064038;28;20028;-69
2021/11/03 00:36:49;;;;;;;1.75;1.65;;;7.20;91.50;;;;;;5058823;28;20025;-70
2021/11/03 00:39:15;;;;;;;1.80;1.67;;;7.30;91.30;;;;;;5069916;28;20016;-70
2021/11/03 00:41:41;;;;;;;2.00;1.80;;;7.20;89.90;;;;;;5058599;28;20044;-69
2021/11/03 00:44:06;;;;;;;1.65;1.55;;;7.20;89.80;;;;;;5063726;28;20060;-69
2021/11/03 00:46:32;;;;;;;1.55;1.40;;;7.20;89.40;;;;;;5065473;28;20024;-70
2021/11/03 00:48:57;;;;;;;1.67;1.55;;;7.20;89.60;;;;;;5057589;28;20029;-70
2021/11/03 00:51:23;;;;;;;1.92;1.55;;;7.20;89.70;;;;;;5069691;28;20033;-71
2021/11/03 00:53:49;;;;;;;2.22;1.80;;;7.00;89.60;;;;;;5058331;28;20024;-69
2021/11/03 00:56:15;;;;;;;1.95;1.58;;;7.00;89.60;;;;;;5063184;28;20028;-71
2021/11/03 00:58:41;;;;;;;2.03;1.60;;;6.80;89.70;;;;;;5065179;28;20020;-70
2021/11/03 01:01:07;;;;;;;2.50;2.17;;;6.70;90.00;;;;;;5056551;28;20052;-70
2021/11/03 01:03:32;;;;;;;2.85;2.05;;;6.60;90.30;;;;;;5068437;28;20122;-69
2021/11/03 01:05:58;;;;;;;2.03;1.83;;;6.60;90.70;;;;;;5059040;28;20028;-71
2021/11/03 01:08:23;;;;;;;5.72;2.10;;;6.50;91.00;;;;;;5061640;28;20057;-71
2021/11/03 01:10:52;;;;;;;4.10;2.58;;;6.40;91.20;;;;;;5067398;28;20035;-71
2021/11/03 01:13:18;;;;;;;3.72;2.50;;;6.40;91.40;;;;;;5054068;28;20025;-71
2021/11/03 01:15:45;;;;;;;2.72;2.00;;;6.30;91.60;;;;;;5067294;28;20036;-69
2021/11/03 01:18:10;;;;;;;4.47;2.88;;;6.30;91.60;;;;;;5060405;28;20115;-69
2021/11/03 01:20:36;;;;;;;3.55;2.95;;;6.20;91.60;;;;;;5059944;28;20096;-70
2021/11/03 01:23:04;;;;;;;3.08;2.60;;;6.10;91.80;;;;;;5066741;28;20025;-69
2021/11/03 01:25:30;;;;;;;4.53;2.42;;;6.20;91.90;;;;;;5039661;28;20021;-70
2021/11/03 01:27:55;;;;;;;4.10;2.25;;;6.10;92.00;;;;;;5065544;28;20017;-70
2021/11/03 01:30:23;;;;;;;2.33;2.10;;;6.10;92.10;;;;;;5062986;28;20043;-70
2021/11/03 01:32:49;;;;;;;3.25;2.40;;;6.20;92.10;;;;;;5057332;28;20032;-70
2021/11/03 01:35:15;;;;;;;3.22;1.98;;;6.20;91.40;;;;;;5068785;28;20099;-70
2021/11/03 01:37:41;;;;;;;2.42;2.08;;;6.20;91.30;;;;;;5056945;28;20025;-70
2021/11/03 01:40:12;;;;;;;3.47;1.70;;;6.20;90.90;;;;;;5063707;28;20021;-69
2021/11/03 01:42:38;;;;;;;2.35;2.15;;;6.10;91.10;;;;;;5064323;28;20660;-70
2021/11/03 01:45:06;;;;;;;2.42;1.92;;;6.10;91.00;;;;;;5054611;28;20043;-71
2021/11/03 01:47:45;;;;;;;3.20;2.35;;;6.00;91.20;;;;;;5039599;28;20389;-70
2021/11/03 01:50:25;;;;;;;1.98;1.80;;;6.00;91.50;;;;;;5061439;28;20506;-70
2021/11/03 01:52:59;;;;;;;3.92;2.45;;;6.00;91.60;;;;;;5065943;28;20028;-70
2021/11/03 01:55:27;;;;;;;2.30;2.10;;;6.00;91.60;;;;;;5055537;28;20029;-71
2021/11/03 01:58:00;;;;;;;2.15;1.95;;;6.10;91.70;;;;;;5065300;28;20040;-71
2021/11/03 02:00:29;;;;;;;2.22;1.95;;;6.20;92.00;;;;;;5063191;28;20495;-70
2021/11/03 02:03:00;;;;;;;3.53;2.15;;;6.40;91.90;;;;;;5056044;28;20044;-71
2021/11/03 02:05:26;;;;;;;;;;;6.50;91.50;;;;;;5055375;28;20101;-70
2021/11/03 02:07:53;;;;;;;2.08;1.83;;;6.50;90.30;;;;;;5065317;28;19951;-70
2021/11/03 02:10:19;;;;;;;1.83;1.50;;;6.60;89.80;;;;;;5060654;28;20032;-70
2021/11/03 02:12:45;;;;;;;1.67;1.58;;;6.50;89.20;;;;;;5057114;28;20025;-70
2021/11/03 02:15:14;;;;;;;1.83;1.65;;;6.50;89.20;;;;;;5068309;28;20037;-70
2021/11/03 02:17:40;;;;;;;1.55;1.40;;;6.30;89.40;;;;;;5056595;28;20032;-70
2021/11/03 02:20:11;;;;;;;2.42;2.22;;;6.30;89.70;;;;;;5063072;28;20129;-70
2021/11/03 02:22:39;;;;;;;;;;;6.20;90.10;;;;;;5062882;28;20028;-69
2021/11/03 02:25:14;;;;;;;2.13;1.40;;;6.10;90.30;;;;;;5054963;28;19966;-70
2021/11/03 02:27:43;;;;;;;2.97;2.00;;;6.00;90.40;;;;;;5066631;28;20490;-70
2021/11/03 02:30:13;;;;;;;1.88;1.45;;;5.90;90.70;;;;;;5060180;28;20101;-70
2021/11/03 02:32:42;;;;;;;2.00;1.90;;;5.80;90.80;;;;;;5057366;28;20403;-70
2021/11/03 02:35:07;;;;;;;2.78;2.20;;;5.60;90.80;;;;;;5068071;28;20420;-70
2021/11/03 02:37:40;;;;;;;2.05;1.90;;;5.50;91.00;;;;;;5054014;28;20070;-70
2021/11/03 02:40:28;;;;;;;2.42;2.22;;;5.40;91.40;;;;;;5062556;28;20025;-70
2021/11/03 02:43:02;;;;;;;2.03;1.88;;;5.30;91.40;;;;;;5065588;28;20040;-71
2021/11/03 02:45:43;;;;;;;3.45;2.25;;;5.20;91.70;;;;;;5054693;28;20032;-71
2021/11/03 02:48:09;;;;;;;4.60;2.63;;;5.20;91.80;;;;;;5062329;28;20580;-71
2021/11/03 02:50:35;;;;;;;4.40;2.53;;;5.10;91.90;;;;;;5061794;28;20025;-69
2021/11/03 02:53:01;;;;;;;3.70;2.50;;;5.00;91.90;;;;;;5054348;28;20032;-70
2021/11/03 02:55:27;;;;;;;3.50;2.80;;;5.00;92.10;;;;;;5067691;28;20514;-70
2021/11/03 02:57:53;;;;;;;3.08;2.78;;;5.00;92.00;;;;;;5057849;28;20021;-70
2021/11/03 03:00:21;;;;;;;2.97;2.67;;;5.00;92.20;;;;;;5059455;28;20064;-70
2021/11/03 03:02:46;;;;;;;3.47;2.90;;;5.00;92.30;;;;;;5064362;28;20029;-70
2021/11/03 03:05:13;;;;;;;5.70;3.30;;;5.00;92.30;;;;;;5054426;28;20028;-70
2021/11/03 03:07:38;;;;;;;6.20;2.90;;;4.90;92.50;;;;;;5065073;28;20565;-70
2021/11/03 03:10:06;;;;;;;4.15;3.05;;;5.00;92.50;;;;;;5059102;28;20108;-70
2021/11/03 03:12:33;;;;;;;3.60;3.20;;;4.90;92.60;;;;;;5036905;28;20055;-69
2021/11/03 03:14:59;;;;;;;6.00;3.20;;;4.90;92.40;;;;;;5062710;28;20020;-70
2021/11/03 03:17:25;;;;;;;4.00;3.20;;;4.80;92.40;;;;;;5054208;28;20600;-70
2021/11/03 03:19:51;;;;;;;3.50;3.13;;;4.80;92.40;;;;;;5064577;28;20088;-70
2021/11/03 03:22:18;;;;;;;3.85;3.35;;;4.80;92.50;;;;;;5059861;28;20557;-70
2021/11/03 03:24:45;;;;;;;3.35;3.03;;;4.80;92.60;;;;;;5057131;28;20029;-70
2021/11/03 03:27:10;;;;;;;4.68;2.92;;;4.70;92.70;;;;;;5067298;28;20603;-70
2021/11/03 03:29:37;;;;;;;5.07;3.05;;;4.60;92.70;;;;;;5055471;28;20103;-70
2021/11/03 03:32:03;;;;;;;4.63;3.20;;;4.60;92.80;;;;;;5060414;28;20112;-69
2021/11/03 03:34:29;;;;;;;8.63;4.30;;;4.60;92.70;;;;;;5062410;28;20032;-70
2021/11/03 03:36:56;;;;;;;4.03;2.90;;;4.60;92.70;;;;;;5055429;28;20033;-70
2021/11/03 03:39:23;;;;;;;5.03;3.20;;;4.50;92.70;;;;;;5067307;28;20012;-70
2021/11/03 03:42:05;;;;;;;4.47;3.40;;;4.50;92.70;;;;;;5056979;28;20027;-70
2021/11/03 03:44:32;;;;;;;7.18;4.20;;;4.40;92.80;;;;;;5102572;22;20055;-65
2021/11/03 03:46:58;;;;;;;5.40;4.05;;;4.50;93.00;;;;;;5074851;28;20028;-65
2021/11/03 03:49:24;;;;;;;4.93;3.28;;;4.60;93.30;;;;;;5087419;28;20122;-65
2021/11/03 03:51:49;;;;;;;5.22;3.38;;;4.80;93.70;;;;;;5076897;28;20028;-65
2021/11/03 03:54:16;;;;;;;3.63;2.83;;;5.10;93.80;;;;;;5079891;28;20028;-65
2021/11/03 03:56:41;;;;;;;2.95;2.35;;;5.40;93.70;;;;;;5084250;28;20024;-65
2021/11/03 03:59:07;;;;;;;2.53;2.20;;;5.50;93.20;;;;;;5072844;28;20028;-65
2021/11/03 04:01:32;;;;;;;2.53;2.20;;;5.70;92.70;;;;;;5088926;28;20024;-65
2021/11/03 04:03:58;;;;;;;3.80;2.33;;;5.80;92.60;;;;;;5080780;28;20154;-65
2021/11/03 04:06:23;;;;;;;12.60;1.90;;;5.90;92.80;;;;;;5083226;28;20037;-65
2021/11/03 04:08:49;;;;;;;2.20;2.00;;;5.90;92.40;;;;;;5083011;28;20047;-65
2021/11/03 04:11:14;;;;;;;2.90;2.25;;;6.00;91.60;;;;;;5090751;28;20020;-65
2021/11/03 04:13:40;;;;;;;1.83;1.67;;;6.00;91.60;;;;;;5078139;28;20038;-65
2021/11/03 04:16:06;;;;;;;1.08;0.98;;;6.10;90.80;;;;;;5085199;28;20029;-65
2021/11/03 04:18:32;;;;;;;1.27;1.17;;;6.20;89.30;;;;;;5086105;28;20008;-66
2021/11/03 04:20:58;;;;;;;2.80;1.55;;;6.20;88.60;;;;;;5078268;28;20025;-65
2021/11/03 04:23:23;;;;;;;2.60;1.20;;;6.30;89.20;;;;;;5089820;28;20028;-65
2021/11/03 04:25:50;;;;;;;1.55;1.40;;;6.30;89.50;;;;;;5080070;28;20109;-65
2021/11/03 04:28:16;;;;;;;1.70;1.50;;;6.30;89.50;;;;;;5083802;28;20050;-65
2021/11/03 04:30:43;;;;;;;1.48;1.35;;;6.40;89.90;;;;;;5087184;28;20030;-65
2021/11/03 04:33:08;;;;;;;1.60;1.35;;;6.40;89.90;;;;;;5076070;28;20029;-65
2021/11/03 04:35:34;;;;;;;1.30;1.20;;;6.30;89.60;;;;;;5089581;28;20479;-65
2021/11/03 04:38:00;;;;;;;1.65;1.30;;;6.30;88.80;;;;;;5081138;28;20073;-65
2021/11/03 04:40:28;;;;;;;1.58;1.30;;;6.40;89.40;;;;;;5082221;28;20406;-65
2021/11/03 04:42:54;;;;;;;1.08;0.98;;;6.40;89.50;;;;;;5087831;28;20470;-65
2021/11/03 04:45:20;;;;;;;1.35;1.20;;;6.40;89.60;;;;;;5076726;28;20104;-65
2021/11/03 04:47:47;;;;;;;2.33;1.40;;;6.40;89.50;;;;;;5086299;28;20124;-64
2021/11/03 04:50:17;;;;;;;2.20;1.52;;;6.40;89.60;;;;;;5082572;28;20521;-65
2021/11/03 04:52:42;;;;;;;2.55;1.77;;;6.30;87.80;;;;;;5078850;28;20029;-65
2021/11/03 04:55:08;;;;;;;2.33;1.02;;;6.40;88.10;;;;;;5089116;28;20072;-65
2021/11/03 04:57:34;;;;;;;1.60;1.15;;;6.30;86.80;;;;;;5076749;28;20051;-64
2021/11/03 05:00:04;;;;;;;1.85;1.30;;;6.40;86.20;;;;;;5083884;28;20143;-64
2021/11/03 05:02:29;;;;;;;1.63;1.40;;;6.30;85.40;;;;;;5083885;28;20042;-64
2021/11/03 05:04:55;;;;;;;1.60;1.50;;;6.30;85.80;;;;;;5077335;28;20025;-64
2021/11/03 05:07:20;;;;;;;1.02;1.02;;;6.30;85.50;;;;;;5089267;28;20032;-64
2021/11/03 05:09:46;;;;;;;2.58;1.38;;;6.30;85.60;;;;;;5078927;28;20481;-65
2021/11/03 05:12:11;;;;;;;1.75;1.33;;;6.30;86.00;;;;;;5080519;28;20029;-64
2021/11/03 05:14:37;;;;;;;5.35;1.90;;;6.30;86.10;;;;;;5084623;28;20077;-64
2021/11/03 05:17:03;;;;;;;1.77;1.65;;;6.30;86.50;;;;;;5076438;28;20024;-65
2021/11/03 05:19:31;;;;;;;2.20;2.00;;;6.30;85.60;;;;;;5089271;28;20382;-66
2021/11/03 05:21:58;;;;;;;2.47;1.80;;;6.20;86.20;;;;;;5079811;28;20020;-65
2021/11/03 05:24:24;;;;;;;3.08;1.58;;;6.30;86.50;;;;;;5079958;28;20029;-65
2021/11/03 05:26:50;;;;;;;3.38;1.65;;;6.20;86.10;;;;;;5087366;28;20506;-66
2021/11/03 05:29:17;;;;;;;4.20;1.98;;;6.20;86.10;;;;;;5074569;28;20074;-66
2021/11/03 05:31:43;;;;;;;2.22;2.00;;;6.20;86.40;;;;;;5087274;28;20025;-66
2021/11/03 05:34:09;;;;;;;3.70;1.98;;;6.20;86.10;;;;;;5080105;28;20028;-66
2021/11/03 05:36:34;;;;;;;3.15;2.50;;;6.20;86.20;;;;;;5080100;28;20032;-65
2021/11/03 05:39:04;;;;;;;3.53;2.28;;;6.20;85.80;;;;;;5088374;28;20138;-66
2021/11/03 05:41:30;;;;;;;2.55;2.17;;;6.20;86.30;;;;;;5057967;28;20650;-65
2021/11/03 05:43:56;;;;;;;5.22;2.78;;;6.20;85.90;;;;;;5084188;28;20036;-65
2021/11/03 05:46:34;;;;;;;4.93;2.97;;;6.10;86.00;;;;;;5082867;28;20028;-66
2021/11/03 05:49:03;;;;;;;3.33;2.47;;;6.00;85.40;;;;;;5076070;28;20040;-66
2021/11/03 05:51:28;;;;;;;4.38;3.30;;;5.90;85.80;;;;;;5088803;28;20039;-66
2021/11/03 05:53:54;;;;;;;5.55;3.22;;;5.80;86.20;;;;;;5074752;28;20028;-66
2021/11/03 05:56:20;;;;;;;6.88;4.88;;;5.70;86.50;;;;;;5081403;28;20059;-65
2021/11/03 05:58:45;;;;;;;15.50;6.80;;;5.60;86.90;;;;;;5085970;28;20020;-66
2021/11/03 06:01:11;;;;;;;9.32;5.85;;;5.50;87.00;;;;;;5075144;28;20062;-65
2021/11/03 06:03:36;;;;;;;9.45;6.43;;;5.40;87.30;;;;;;5085233;28;20035;-66
2021/11/03 06:06:03;;;;;;;7.88;4.78;;;5.30;87.80;;;;;;5079758;28;20103;-65
2021/11/03 06:08:29;;;;;;;8.25;5.50;;;5.30;87.80;;;;;;5079892;28;20185;-66
2021/11/03 06:10:56;;;;;;;8.82;5.45;;;5.30;88.00;;;;;;5086765;28;20501;-66
2021/11/03 06:13:21;;;;;;;9.20;5.25;;;5.20;88.30;;;;;;5072630;28;20052;-66
2021/11/03 06:15:47;;;;;;;9.07;5.53;;;5.10;88.80;;;;;;5085344;28;20021;-66
2021/11/03 06:18:13;;;;;;;8.02;4.35;;;5.00;89.10;;;;;;5080676;28;20035;-66
2021/11/03 06:20:39;;;;;;;5.93;4.00;;;5.00;89.30;;;;;;5078479;28;20435;-66
2021/11/03 06:23:05;;;;;;;9.02;5.57;;;4.90;89.60;;;;;;5087204;28;20397;-66
2021/11/03 06:25:32;;;;;;;8.07;5.00;;;5.20;89.90;;;;;;5074982;28;20085;-66
2021/11/03 06:27:58;;;;;;;6.60;4.43;;;5.70;89.40;;;;;;5083493;28;20095;-66
2021/11/03 06:30:27;;;;;;;7.90;4.47;;;6.00;88.00;;;;;;5080773;28;20040;-66
2021/11/03 06:32:53;;;;;;;10.00;5.07;;;6.00;87.10;;;;;;5075589;28;20028;-66
2021/11/03 06:35:19;;;;;;;7.53;4.70;;;6.00;87.20;;;;;;5087751;28;20020;-66
2021/11/03 06:37:45;;;;;;;4.30;3.38;;;6.10;86.90;;;;;;5076830;28;20024;-68
2021/11/03 06:40:16;;;;;;;5.82;3.67;;;6.00;86.60;;;;;;5081589;28;20078;-68
2021/11/03 06:42:41;;;;;;;6.22;3.75;;;6.00;86.20;;;;;;5083795;28;20016;-70
2021/11/03 06:45:09;;;;;;;5.45;4.30;;;6.10;86.60;;;;;;5074442;28;20036;-69
2021/11/03 06:47:35;;;;;;;11.45;4.15;;;6.10;85.00;;;;;;5086976;28;20028;-68
2021/11/03 06:50:02;;;;;;;5.65;3.50;;;6.00;86.00;;;;;;5077333;28;20477;-68
2021/11/03 06:52:29;;;;;;;5.30;3.70;;;6.00;86.20;;;;;;5078586;28;20031;-68
2021/11/03 06:54:54;;;;;;;5.47;3.70;;;6.00;86.60;;;;;;5086187;28;20358;-67
2021/11/03 06:57:20;;;;;;;7.20;4.25;;;6.10;86.70;;;;;;5074281;28;20065;-68
2021/11/03 06:59:47;;;;;;;4.70;3.40;;;6.20;87.10;;;;;;5084567;28;20114;-68
2021/11/03 07:02:17;;;;;;;6.03;4.72;;;6.50;86.90;;;;;;5078762;28;20090;-68
2021/11/03 07:04:43;;;;;;;7.10;4.65;;;6.60;86.00;;;;;;5076984;28;20097;-72
2021/11/03 07:07:09;;;;;;;6.20;4.57;;;6.70;85.90;;;;;;5089244;28;20024;-69
2021/11/03 07:09:35;;;;;;;6.35;4.65;;;6.60;85.10;;;;;;5077133;28;20030;-71
2021/11/03 07:12:00;;;;;;;8.55;5.45;;;6.60;85.10;;;;;;5084764;28;20183;-73
2021/11/03 07:14:26;;;;;;;9.73;5.90;;;6.70;85.20;;;;;;5071812;28;20078;-70
2021/11/03 07:16:52;;;;;;;7.35;4.50;;;6.70;85.60;;;;;;5077647;28;20035;-68
2021/11/03 07:19:18;;;;;;;8.05;4.68;;;6.80;85.80;;;;;;5087532;28;20050;-71
2021/11/03 07:21:44;;;;;;;6.28;4.65;;;6.80;85.00;;;;;;5074876;28;20048;-70
2021/11/03 07:24:12;;;;;;;7.20;5.38;;;6.90;85.00;;;;;;5080751;28;20020;-70
2021/11/03 07:26:42;;;;;;;7.75;5.03;;;6.80;84.30;;;;;;5082071;28;20514;-70
2021/11/03 07:29:09;;;;;;;8.25;5.53;;;6.90;83.90;;;;;;5074165;28;20442;-69
2021/11/03 07:31:35;;;;;;;9.10;5.43;;;6.90;83.60;;;;;;5086967;28;20081;-71
2021/11/03 07:34:00;;;;;;;9.82;6.55;;;7.00;83.80;;;;;;5077636;28;20031;-70
2021/11/03 07:36:27;;;;;;;8.82;6.72;;;7.20;83.20;;;;;;5082039;28;20029;-70
2021/11/03 07:38:52;;;;;;;10.68;7.60;;;7.40;82.80;;;;;;5090485;28;20020;-70
2021/11/03 07:41:18;;;;;;;14.85;8.50;;;7.50;82.20;;;;;;5078214;28;20145;-69
2021/11/03 07:43:45;;;;;;;10.38;7.43;;;7.60;81.80;;;;;;5086976;28;20033;-70
2021/11/03 07:46:12;;;;;;;11.20;6.38;;;7.80;81.90;;;;;;5082317;28;20226;-71
2021/11/03 07:48:38;;;;;;;13.48;8.00;;;8.10;82.20;;;;;;5080058;28;20064;-71
2021/11/03 07:51:07;;;;;;;17.50;9.20;;;8.30;81.30;;;;;;5090718;28;20032;-70
2021/11/03 07:53:34;;;;;;;14.27;9.10;;;8.60;80.50;;;;;;5061251;28;20042;-73
2021/11/03 07:56:05;;;;;;;14.15;10.07;;;8.80;79.90;;;;;;5086352;28;20023;-71
2021/11/03 07:58:34;;;;;;;14.47;9.67;;;8.60;79.10;;;;;;5086373;28;20111;-71
2021/11/03 08:01:01;;;;;;;14.75;10.02;;;8.50;79.20;;;;;;5076567;28;20729;-71
2021/11/03 08:03:27;;;;;;;17.35;11.48;;;8.60;79.70;;;;;;5089817;28;20028;-70
2021/11/03 08:05:54;;;;;;;17.88;11.05;;;8.70;79.40;;;;;;5080580;28;20449;-69
2021/11/03 08:08:23;;;;;;;16.30;11.38;;;8.60;79.50;;;;;;5083188;28;20033;-70
2021/11/03 08:10:49;;;;;;;14.15;11.15;;;8.60;79.90;;;;;;5088691;28;20024;-69
2021/11/03 08:13:18;;;;;;;14.05;10.65;;;8.80;79.90;;;;;;5076380;28;20028;-71
2021/11/03 08:15:46;;;;;;;14.40;10.68;;;9.00;79.80;;;;;;5088194;28;20048;-70
2021/11/03 08:18:13;;;;;;;17.00;10.57;;;9.30;78.70;;;;;;5083065;28;20069;-71
2021/11/03 08:20:40;;;;;;;14.82;10.45;;;9.60;78.20;;;;;;5080635;28;20052;-70
2021/11/03 08:23:06;;;;;;;17.05;10.60;;;9.70;76.70;;;;;;5089732;28;20024;-71
2021/11/03 08:25:34;;;;;;;14.43;10.32;;;9.60;77.10;;;;;;5077857;28;20024;-70
2021/11/03 08:28:00;;;;;;;15.65;10.65;;;9.40;77.40;;;;;;5085020;28;20131;-71
2021/11/03 08:30:26;;;;;;;16.75;11.07;;;9.40;78.00;;;;;;5084571;28;20536;-71
2021/11/03 08:32:56;;;;;;;13.88;9.95;;;9.50;77.70;;;;;;5076377;28;20106;-69
2021/11/03 08:35:25;;;;;;;14.80;10.20;;;9.70;77.20;;;;;;5088855;28;20513;-70
2021/11/03 08:37:52;;;;;;;13.68;9.73;;;9.60;76.90;;;;;;5078848;28;20389;-69
2021/11/03 08:40:20;;;;;;;13.05;9.52;;;9.60;77.60;;;;;;5081915;28;20024;-69
2021/11/03 08:42:48;;;;;;;12.63;9.15;;;9.50;78.30;;;;;;5086407;28;20034;-70
2021/11/03 08:45:14;;;;;;;16.23;9.70;;;9.40;78.00;;;;;;5076727;28;20029;-69
2021/11/03 08:47:41;;;;;;;10.38;7.68;;;9.30;79.00;;;;;;5088574;28;20032;-70
2021/11/03 08:50:12;;;;;;;16.55;8.65;;;9.30;77.90;;;;;;5081759;28;20028;-70
2021/11/03 08:52:37;;;;;;;10.68;7.93;;;9.30;78.50;;;;;;5079546;28;20029;-69
2021/11/03 08:55:03;;;;;;;14.77;8.40;;;9.30;77.70;;;;;;5089633;28;20024;-68
2021/11/03 08:57:32;;;;;;;12.18;7.43;;;9.20;77.80;;;;;;5076383;28;20020;-68
2021/11/03 08:59:58;;;;;;;12.00;8.77;;;9.20;78.20;;;;;;5085615;28;20060;-71
2021/11/03 09:02:24;;;;;;;14.55;8.32;;;9.20;79.10;;;;;;5083282;28;20109;-72
2021/11/03 09:04:51;;;;;;;12.15;6.90;;;9.20;78.50;;;;;;5078572;28;20020;-71
2021/11/03 09:07:16;;;;;;;11.82;7.93;;;9.40;77.70;;;;;;5089491;28;20035;-72
2021/11/03 09:09:43;;;;;;;10.82;7.43;;;9.50;78.30;;;;;;5078058;28;20070;-71
2021/11/03 09:12:09;;;;;;;12.13;7.70;;;9.50;77.60;;;;;;5081748;28;20191;-68
2021/11/03 09:14:35;;;;;;;8.48;6.15;;;9.60;77.80;;;;;;5084156;28;20445;-67
2021/11/03 09:17:01;;;;;;;9.23;6.70;;;9.70;76.10;;;;;;5075522;28;20045;-67
2021/11/03 09:19:26;;;;;;;11.73;6.47;;;9.70;75.40;;;;;;5089260;28;20095;-67
2021/11/03 09:21:52;;;;;;;9.18;5.90;;;9.70;75.40;;;;;;5079163;28;20107;-69
2021/11/03 09:24:18;;;;;;;10.63;6.53;;;9.70;75.30;;;;;;5081716;28;20060;-70
2021/11/03 09:26:44;;;;;;;8.05;5.85;;;9.60;75.30;;;;;;5085277;28;20027;-72
2021/11/03 09:29:13;;;;;;;9.68;5.90;;;9.50;75.40;;;;;;5075964;28;20024;-70
2021/11/03 09:31:40;;;;;;;7.90;5.63;;;9.50;75.20;;;;;;5087898;28;20096;-71
2021/11/03 09:34:06;;;;;;;12.35;7.35;;;9.70;75.20;;;;;;5078537;28;20028;-70
2021/11/03 09:36:32;;;;;;;10.93;8.13;;;9.70;75.00;;;;;;5080143;28;20017;-71
2021/11/03 09:38:58;;;;;;;17.75;7.10;;;9.80;75.20;;;;;;5087961;28;20078;-68
2021/11/03 09:41:26;;;;;;;7.68;6.03;;;9.90;75.40;;;;;;5075458;28;20029;-70
2021/11/03 09:43:57;;;;;;;8.70;6.15;;;9.90;75.20;;;;;;5099641;22;20052;-71
2021/11/03 09:46:30;;;;;;;7.20;5.60;;;10.00;75.30;;;;;;5090677;28;20116;-70
2021/11/03 09:49:23;;;;;;;20.33;10.13;;;10.00;74.90;;;;;;5092015;28;20088;-70
2021/11/03 09:52:25;;;;;;;9.75;6.15;;;9.90;76.10;;;;;;5076342;28;20047;-69
2021/11/03 09:54:54;;;;;;;12.05;6.45;;;10.00;75.00;;;;;;5049867;28;20608;-70
2021/11/03 09:57:29;;;;;;;9.43;6.13;;;10.00;75.20;;;;;;5068125;28;20025;-70
2021/11/03 10:00:01;;;;;;;15.23;8.68;;;10.00;74.70;;;;;;5058005;28;20035;-69
2021/11/03 10:02:38;;;;;;;8.70;6.65;;;10.00;75.70;;;;;;5059655;28;20021;-70
2021/11/03 10:05:26;;;;;;;10.85;7.25;;;9.90;74.70;;;;;;5068033;28;20052;-73
2021/11/03 10:07:59;;;;;;;9.68;7.68;;;9.90;76.30;;;;;;5056876;28;20056;-71
2021/11/03 10:10:31;;;;;;;10.30;6.85;;;9.70;76.30;;;;;;5062421;28;20120;-70
2021/11/03 10:12:59;;;;;;;9.27;7.00;;;9.80;76.40;;;;;;5054058;28;20467;-71
2021/11/03 10:15:26;;;;;;;15.48;10.23;;;9.70;76.10;;;;;;5068025;28;20049;-72
2021/11/03 10:18:15;;;;;;;32.35;16.80;;;9.70;77.10;;;;;;5058343;28;20028;-72
2021/11/03 10:20:56;;;;;;;10.80;7.28;;;9.70;77.00;;;;;;5058472;28;20044;-73
2021/11/03 10:23:26;;;;;;;8.93;6.57;;;9.80;77.10;;;;;;5067517;28;20071;-71
2021/11/03 10:26:06;;;;;;;9.35;7.03;;;9.70;76.60;;;;;;5057888;28;20024;-72
2021/11/03 10:28:51;;;;;;;11.50;7.43;;;9.70;76.60;;;;;;5057852;28;20025;-70
2021/11/03 10:31:34;;;;;;;7.72;6.50;;;9.70;76.90;;;;;;5068060;28;20070;-72
2021/11/03 10:34:04;;;;;;;9.95;6.88;;;9.70;76.10;;;;;;5058165;28;20025;-71
2021/11/03 10:36:41;;;;;;;14.10;6.53;;;9.80;76.20;;;;;;5059295;28;20025;-71
2021/11/03 10:39:17;;;;;;;12.30;6.80;;;9.90;76.50;;;;;;5049817;28;20028;-69
2021/11/03 10:41:43;;;;;;;10.18;6.78;;;10.00;75.80;;;;;;5051351;28;20074;-70
2021/11/03 10:44:14;;;;;;;7.45;6.38;;;10.00;75.20;;;;;;5049482;28;20686;-70
2021/11/03 10:46:56;;;;;;;13.65;8.25;;;10.10;74.20;;;;;;5050975;28;20440;-70
2021/11/03 10:49:33;;;;;;;8.20;5.50;;;10.20;75.40;;;;;;5051504;28;20040;-70
2021/11/03 10:52:20;;;;;;;9.75;5.55;;;10.30;74.60;;;;;;5051020;28;20049;-70
2021/11/03 10:54:53;;;;;;;7.38;5.60;;;10.30;73.40;;;;;;5051146;28;20048;-70
2021/11/03 10:57:28;;;;;;;8.55;5.78;;;10.20;73.50;;;;;;5050121;28;20017;-70
2021/11/03 11:00:05;;;;;;;8.30;5.53;;;10.30;73.40;;;;;;5051507;28;20029;-72
2021/11/03 11:02:31;;;;;;;12.57;5.90;;;10.40;73.30;;;;;;5051354;28;20033;-71
2021/11/03 11:05:02;;;;;;;13.40;6.05;;;10.50;73.00;;;;;;5050338;28;20025;-71
2021/11/03 11:07:49;;;;;;;29.30;14.32;;;10.50;73.00;;;;;;5050379;28;20601;-71
2021/11/03 11:10:41;;;;;;;5.40;4.38;;;10.60;71.90;;;;;;5050268;28;20032;-71
2021/11/03 11:13:12;;;;;;;;;;;10.80;70.30;;;;;;5054178;28;20029;-71
2021/11/03 11:15:43;;;;;;;4.35;3.70;;;10.80;71.70;;;;;;5056062;28;19912;-70
2021/11/03 11:18:35;;;;;;;4.65;3.20;;;10.90;68.90;;;;;;5055318;28;20029;-69
2021/11/03 11:21:09;;;;;;;5.53;3.42;;;10.90;68.90;;;;;;5054320;28;20021;-70
2021/11/03 11:23:39;;;;;;;5.45;3.90;;;10.90;69.20;;;;;;5054879;28;20601;-70
2021/11/03 11:26:22;;;;;;;6.22;3.67;;;10.80;68.20;;;;;;5055701;28;20033;-69
2021/11/03 11:28:52;;;;;;;4.50;3.60;;;10.80;69.10;;;;;;5055028;28;20021;-70
2021/11/03 11:31:57;;;;;;;55.25;27.45;;;10.80;69.00;;;;;;5055357;28;20094;-70
2021/11/03 11:35:01;;;;;;;6.47;4.28;;;10.80;71.10;;;;;;5054200;28;20175;-70
2021/11/03 11:37:44;;;;;;;4.13;3.10;;;10.80;69.00;;;;;;5054129;28;20025;-70
2021/11/03 11:40:13;;;;;;;4.47;3.17;;;10.70;69.10;;;;;;5054038;28;20017;-71
2021/11/03 11:42:45;;;;;;;5.38;3.88;;;10.60;68.30;;;;;;5053163;28;20021;-70
2021/11/03 11:45:24;;;;;;;4.35;3.83;;;10.60;69.50;;;;;;5054977;28;20029;-70
2021/11/03 11:47:54;;;;;;;5.07;3.92;;;10.50;70.00;;;;;;5054460;28;20021;-70
2021/11/03 11:50:54;;;;;;;4.70;3.75;;;10.40;70.50;;;;;;5054690;28;20017;-70
2021/11/03 11:53:19;;;;;;;5.95;4.30;;;10.40;71.60;;;;;;5046481;28;20035;-70
2021/11/03 11:56:22;;;;;;;4.72;4.00;;;10.40;71.50;;;;;;5054839;28;20021;-70
2021/11/03 11:59:03;;;;;;;6.55;4.63;;;10.40;71.50;;;;;;5054601;28;20078;-71
2021/11/03 12:01:47;;;;;;;6.35;5.00;;;10.40;72.20;;;;;;5053592;28;20025;-71
2021/11/03 12:04:19;;;;;;;6.13;4.55;;;10.50;71.70;;;;;;5053972;28;20534;-71
2021/11/03 12:06:51;;;;;;;6.53;4.97;;;10.50;71.80;;;;;;5054762;28;20036;-70
2021/11/03 12:09:41;;;;;;;6.78;4.55;;;10.50;71.80;;;;;;5054399;28;20025;-71
2021/11/03 12:12:07;;;;;;;6.20;4.65;;;10.50;72.10;;;;;;5053540;28;20021;-70
2021/11/03 12:14:42;;;;;;;6.85;4.32;;;10.50;72.20;;;;;;5054351;28;20028;-71
2021/11/03 12:17:08;;;;;;;5.53;4.40;;;10.50;72.10;;;;;;5054458;28;20024;-70
2021/11/03 12:19:36;;;;;;;6.22;4.38;;;10.40;72.80;;;;;;5054576;28;20021;-70
2021/11/03 12:22:09;;;;;;;6.57;4.63;;;10.40;72.90;;;;;;5053444;28;20170;-70
2021/11/03 12:24:37;;;;;;;6.75;4.57;;;10.40;72.60;;;;;;5054343;28;20155;-70
2021/11/03 12:27:15;;;;;;;6.78;4.28;;;10.50;72.50;;;;;;5052773;28;20468;-70
2021/11/03 12:29:41;;;;;;;8.55;4.45;;;10.50;72.30;;;;;;5054812;28;20028;-70
2021/11/03 12:32:40;;;;;;;6.10;4.15;;;10.50;72.10;;;;;;5052784;28;20032;-70
2021/11/03 12:35:25;;;;;;;6.63;4.38;;;10.60;72.60;;;;;;5054961;28;20029;-70
2021/11/03 12:37:56;;;;;;;6.45;4.35;;;10.70;71.60;;;;;;5055140;28;20032;-71
2021/11/03 12:40:21;;;;;;;5.35;4.60;;;10.60;71.90;;;;;;5052968;28;20060;-70
2021/11/03 12:43:10;;;;;;;6.65;4.07;;;10.60;72.40;;;;;;5053468;28;20106;-71
2021/11/03 12:45:41;;;;;;;6.50;4.70;;;10.60;72.20;;;;;;5056487;28;20029;-72
2021/11/03 12:48:38;;;;;;;8.13;4.38;;;10.70;72.80;;;;;;5054483;28;20025;-70
2021/11/03 12:51:27;;;;;;;5.28;3.83;;;10.70;71.40;;;;;;5054394;28;20107;-71
2021/11/03 12:54:01;;;;;;;5.35;4.43;;;10.80;70.90;;;;;;5053663;28;20029;-71
2021/11/03 12:56:51;;;;;;;4.55;3.38;;;10.80;70.80;;;;;;5053038;28;20025;-71
2021/11/03 12:59:23;;;;;;;4.72;3.97;;;10.90;71.20;;;;;;5047943;28;20037;-70
2021/11/03 13:01:58;;;;;;;4.78;3.33;;;11.00;71.00;;;;;;5053441;28;20574;-71
2021/11/03 13:04:27;;;;;;;6.95;3.65;;;10.90;70.80;;;;;;5053324;28;20035;-71